createdAt,value
2017-11-30T00:00:29.073Z,96919.98
2017-11-30T00:02:58.277Z,96919.11
2017-11-30T00:05:26.652Z,96922.09
2017-11-30T00:07:54.961Z,96922.05
2017-11-30T00:10:23.255Z,96916.60
2017-11-30T00:12:51.561Z,96914.94
2017-11-30T00:15:19.893Z,96918.32
2017-11-30T00:17:48.190Z,96920.70
2017-11-30T00:20:16.483Z,96924.89
2017-11-30T00:22:44.778Z,96920.73
2017-11-30T00:25:13.105Z,96916.16
2017-11-30T00:27:41.376Z,96912.76
2017-11-30T00:30:09.746Z,96912.78
2017-11-30T00:32:38.037Z,96909.45
2017-11-30T00:35:06.392Z,96910.67
2017-11-30T00:37:35.465Z,96908.55
2017-11-30T00:40:04.589Z,96910.70
2017-11-30T00:42:50.483Z,96911.56
2017-11-30T00:45:18.780Z,96909.39
2017-11-30T00:47:47.078Z,96904.72
2017-11-30T00:50:15.373Z,96907.16
2017-11-30T00:52:44.694Z,96910.44
2017-11-30T00:55:12.978Z,96904.36
2017-11-30T00:57:41.268Z,96905.84
2017-11-30T01:00:09.583Z,96911.25
2017-11-30T01:02:37.892Z,96908.47
2017-11-30T01:05:06.993Z,96907.66
2017-11-30T01:07:35.274Z,96904.36
2017-11-30T01:10:03.598Z,96908.05
2017-11-30T01:12:31.883Z,96906.05
2017-11-30T01:15:00.182Z,96899.06
2017-11-30T01:17:29.265Z,96895.02
2017-11-30T01:19:57.556Z,96890.83
2017-11-30T01:22:26.595Z,96890.72
2017-11-30T01:24:54.872Z,96890.06
2017-11-30T01:27:23.154Z,96885.42
2017-11-30T01:29:51.442Z,96885.40
2017-11-30T01:32:19.738Z,96882.09
2017-11-30T01:34:49.621Z,96884.98
2017-11-30T01:37:17.905Z,96876.27
2017-11-30T01:39:46.186Z,96881.47
2017-11-30T01:42:14.480Z,96878.58
2017-11-30T01:44:42.774Z,96876.94
2017-11-30T01:47:11.067Z,96882.48
2017-11-30T01:49:39.360Z,96878.59
2017-11-30T01:52:07.642Z,96876.56
2017-11-30T01:54:35.971Z,96876.90
2017-11-30T01:57:04.262Z,96883.23
2017-11-30T01:59:32.562Z,96879.80
2017-11-30T02:02:00.846Z,96869.43
2017-11-30T02:04:29.132Z,96869.58
2017-11-30T02:06:57.417Z,96873.05
2017-11-30T02:09:25.712Z,96874.86
2017-11-30T02:11:53.993Z,96873.59
2017-11-30T02:14:22.286Z,96871.52
2017-11-30T02:16:50.599Z,96868.95
2017-11-30T02:19:18.881Z,96875.65
2017-11-30T02:21:47.174Z,96879.45
2017-11-30T02:24:15.461Z,96867.84
2017-11-30T02:26:43.775Z,96873.97
2017-11-30T02:29:12.841Z,96870.80
2017-11-30T02:31:42.404Z,96866.62
2017-11-30T02:34:10.720Z,96862.15
2017-11-30T02:36:40.455Z,96857.36
2017-11-30T02:39:08.742Z,96854.11
2017-11-30T02:41:37.796Z,96851.63
2017-11-30T02:44:06.099Z,96846.20
2017-11-30T02:46:35.234Z,96851.34
2017-11-30T02:49:03.524Z,96844.64
2017-11-30T02:51:31.808Z,96841.72
2017-11-30T02:54:00.114Z,96849.37
2017-11-30T02:56:28.417Z,96852.78
2017-11-30T02:58:56.722Z,96846.31
2017-11-30T03:01:25.051Z,96845.87
2017-11-30T03:03:54.118Z,96845.89
2017-11-30T03:06:22.409Z,96838.34
2017-11-30T03:08:50.705Z,96835.85
2017-11-30T03:11:18.997Z,96832.11
2017-11-30T03:13:47.303Z,96829.16
2017-11-30T03:16:15.591Z,96838.02
2017-11-30T03:18:43.882Z,96830.37
2017-11-30T03:21:12.174Z,96826.62
2017-11-30T03:23:40.474Z,96824.45
2017-11-30T03:26:09.526Z,96826.12
2017-11-30T03:28:37.818Z,96823.11
2017-11-30T03:31:06.119Z,96824.26
2017-11-30T03:33:34.419Z,96822.92
2017-11-30T03:36:02.710Z,96828.03
2017-11-30T03:38:30.994Z,96833.36
2017-11-30T03:40:59.285Z,96826.66
2017-11-30T03:43:27.570Z,96828.10
2017-11-30T03:45:55.874Z,96835.64
2017-11-30T03:48:24.942Z,96837.87
2017-11-30T03:50:53.257Z,96836.14
2017-11-30T03:53:21.554Z,96837.53
2017-11-30T03:55:49.842Z,96835.14
2017-11-30T03:58:18.136Z,96835.59
2017-11-30T04:00:46.426Z,96835.50
2017-11-30T04:03:14.705Z,96843.22
2017-11-30T04:05:42.990Z,96842.28
2017-11-30T04:08:11.299Z,96839.33
2017-11-30T04:10:39.586Z,96837.36
2017-11-30T04:13:07.872Z,96837.95
2017-11-30T04:15:36.151Z,96840.16
2017-11-30T04:18:04.445Z,96839.82
2017-11-30T04:20:34.001Z,96843.85
2017-11-30T04:23:02.282Z,96845.60
2017-11-30T04:25:30.586Z,96848.58
2017-11-30T04:27:58.869Z,96850.52
2017-11-30T04:30:27.153Z,96846.34
2017-11-30T04:32:55.481Z,96843.22
2017-11-30T04:35:23.770Z,96835.64
2017-11-30T04:37:52.054Z,96842.41
2017-11-30T04:40:20.338Z,96842.41
2017-11-30T04:42:48.646Z,96851.16
2017-11-30T04:45:16.947Z,96852.33
2017-11-30T04:47:45.248Z,96848.88
2017-11-30T04:50:13.539Z,96852.94
2017-11-30T04:52:41.826Z,96845.12
2017-11-30T04:55:10.128Z,96840.22
2017-11-30T04:57:38.424Z,96847.02
2017-11-30T05:00:06.759Z,96852.30
2017-11-30T05:02:35.051Z,96845.08
2017-11-30T05:05:03.341Z,96845.25
2017-11-30T05:07:31.643Z,96846.40
2017-11-30T05:09:59.960Z,96837.52
2017-11-30T05:12:28.514Z,96844.52
2017-11-30T05:14:57.595Z,96849.69
2017-11-30T05:17:25.897Z,96851.66
2017-11-30T05:19:54.187Z,96841.91
2017-11-30T05:22:22.510Z,96850.17
2017-11-30T05:24:50.814Z,96843.35
2017-11-30T05:27:19.106Z,96849.97
2017-11-30T05:29:47.395Z,96843.20
2017-11-30T05:32:15.685Z,96847.41
2017-11-30T05:34:43.975Z,96835.38
2017-11-30T05:37:12.285Z,96835.44
2017-11-30T05:39:41.338Z,96831.91
2017-11-30T05:42:09.607Z,96828.92
2017-11-30T05:44:37.867Z,96835.18
2017-11-30T05:47:06.190Z,96834.70
2017-11-30T05:49:34.456Z,96832.71
2017-11-30T05:52:02.762Z,96833.87
2017-11-30T05:54:31.068Z,96830.44
2017-11-30T05:56:59.374Z,96828.80
2017-11-30T05:59:27.698Z,96822.39
2017-11-30T06:01:55.977Z,96817.43
2017-11-30T06:04:24.261Z,96825.23
2017-11-30T06:06:52.543Z,96829.30
2017-11-30T06:09:20.827Z,96819.97
2017-11-30T06:11:49.127Z,96814.17
2017-11-30T06:14:17.422Z,96811.89
2017-11-30T06:16:46.365Z,96810.79
2017-11-30T06:19:14.649Z,96803.27
2017-11-30T06:21:42.938Z,96803.65
2017-11-30T06:24:11.223Z,96802.16
2017-11-30T06:26:40.295Z,96798.41
2017-11-30T06:29:08.626Z,96800.05
2017-11-30T06:31:36.916Z,96805.52
2017-11-30T06:34:05.202Z,96802.61
2017-11-30T06:36:33.501Z,96796.41
2017-11-30T06:39:01.786Z,96794.38
2017-11-30T06:41:30.098Z,96795.70
2017-11-30T06:43:58.419Z,96800.76
2017-11-30T06:46:26.702Z,96796.65
2017-11-30T06:48:54.990Z,96798.84
2017-11-30T06:51:23.287Z,96798.88
2017-11-30T06:53:51.570Z,96794.72
2017-11-30T06:56:20.642Z,96792.25
2017-11-30T06:58:48.922Z,96794.33
2017-11-30T07:01:17.198Z,96779.12
2017-11-30T07:03:45.503Z,96793.56
2017-11-30T07:06:13.787Z,96801.55
2017-11-30T07:08:42.085Z,96803.56
2017-11-30T07:11:10.414Z,96809.94
2017-11-30T07:13:38.718Z,96806.25
2017-11-30T07:16:06.993Z,96807.88
2017-11-30T07:18:35.289Z,96810.97
2017-11-30T07:21:04.343Z,96813.44
2017-11-30T07:23:32.642Z,96816.02
2017-11-30T07:26:00.925Z,96821.55
2017-11-30T07:28:29.239Z,96817.82
2017-11-30T07:30:57.537Z,96819.06
2017-11-30T07:33:25.847Z,96817.70
2017-11-30T07:35:54.146Z,96821.68
2017-11-30T07:38:23.206Z,96816.22
2017-11-30T07:40:52.637Z,96817.98
2017-11-30T07:43:20.930Z,96815.77
2017-11-30T07:45:49.242Z,96821.80
2017-11-30T07:48:17.538Z,96822.98
2017-11-30T07:50:45.855Z,96822.59
2017-11-30T07:53:14.146Z,96819.17
2017-11-30T07:55:42.446Z,96811.60
2017-11-30T07:58:10.742Z,96815.48
2017-11-30T08:00:39.021Z,96819.30
2017-11-30T08:03:07.311Z,96814.62
2017-11-30T08:05:35.602Z,96819.66
2017-11-30T08:08:03.913Z,96817.20
2017-11-30T08:10:32.208Z,96813.41
2017-11-30T08:13:00.502Z,96814.70
2017-11-30T08:15:28.805Z,96803.69
2017-11-30T08:17:57.160Z,96813.38
2017-11-30T08:20:25.444Z,96806.63
2017-11-30T08:22:53.729Z,96805.41
2017-11-30T08:25:22.024Z,96811.28
2017-11-30T08:27:51.082Z,96804.14
2017-11-30T08:30:19.378Z,96797.91
2017-11-30T08:32:47.680Z,96807.16
2017-11-30T08:35:15.982Z,96802.55
2017-11-30T08:37:44.259Z,96805.91
2017-11-30T08:40:12.536Z,96805.09
2017-11-30T08:42:40.826Z,96805.95
2017-11-30T08:45:09.115Z,96803.44
2017-11-30T08:47:37.494Z,96803.42
2017-11-30T08:50:05.794Z,96800.44
2017-11-30T08:52:34.104Z,96799.17
2017-11-30T08:55:02.409Z,96801.73
2017-11-30T08:57:30.694Z,96805.97
2017-11-30T08:59:58.979Z,96809.72
2017-11-30T09:02:27.271Z,96805.11
2017-11-30T09:04:55.568Z,96800.05
2017-11-30T09:07:24.629Z,96797.95
2017-11-30T09:09:52.916Z,96800.92
2017-11-30T09:12:21.229Z,96806.80
2017-11-30T09:14:49.509Z,96802.16
2017-11-30T09:17:17.804Z,96808.88
2017-11-30T09:19:46.104Z,96806.36
2017-11-30T09:22:14.393Z,96808.00
2017-11-30T09:24:42.698Z,96805.50
2017-11-30T09:27:10.990Z,96806.72
2017-11-30T09:29:39.276Z,96797.91
2017-11-30T09:32:07.553Z,96808.82
2017-11-30T09:34:35.835Z,96798.72
2017-11-30T09:37:05.178Z,96804.62
2017-11-30T09:39:33.459Z,96803.38
2017-11-30T09:42:01.751Z,96802.13
2017-11-30T09:44:30.819Z,96789.05
2017-11-30T09:46:59.121Z,96793.30
2017-11-30T09:49:29.449Z,96789.52
2017-11-30T09:51:57.729Z,96790.36
2017-11-30T09:54:26.795Z,96786.61
2017-11-30T09:56:55.081Z,96781.53
2017-11-30T09:59:23.393Z,96782.35
2017-11-30T10:01:51.699Z,96787.01
2017-11-30T10:04:19.992Z,96787.02
2017-11-30T10:06:48.325Z,96779.84
2017-11-30T10:09:16.717Z,96784.46
2017-11-30T10:11:44.997Z,96780.23
2017-11-30T10:14:13.330Z,96775.58
2017-11-30T10:16:41.722Z,96776.35
2017-11-30T10:19:11.110Z,96778.11
2017-11-30T10:21:40.178Z,96776.00
2017-11-30T10:24:08.499Z,96771.31
2017-11-30T10:26:37.567Z,96766.59
2017-11-30T10:29:05.858Z,96757.34
2017-11-30T10:31:34.985Z,96762.05
2017-11-30T10:34:03.349Z,96760.80
2017-11-30T10:36:31.655Z,96757.00
2017-11-30T10:38:59.952Z,96759.13
2017-11-30T10:41:28.315Z,96757.03
2017-11-30T10:43:56.595Z,96765.93
2017-11-30T10:46:25.653Z,96762.53
2017-11-30T10:48:54.057Z,96757.00
2017-11-30T10:51:22.354Z,96756.17
2017-11-30T10:53:50.691Z,96752.81
2017-11-30T10:56:19.100Z,96740.98
2017-11-30T10:58:47.425Z,96747.77
2017-11-30T11:01:15.745Z,96742.29
2017-11-30T11:03:44.059Z,96744.83
2017-11-30T11:06:12.369Z,96737.19
2017-11-30T11:08:40.714Z,96741.44
2017-11-30T11:11:09.007Z,96743.10
2017-11-30T11:13:37.299Z,96739.30
2017-11-30T11:16:05.586Z,96743.53
2017-11-30T11:18:34.175Z,96735.52
2017-11-30T11:21:02.487Z,96747.78
2017-11-30T11:23:32.113Z,96746.09
2017-11-30T11:26:00.406Z,96748.17
2017-11-30T11:28:29.461Z,96746.48
2017-11-30T11:30:58.130Z,96739.70
2017-11-30T11:33:26.474Z,96739.28
2017-11-30T11:35:55.529Z,96738.48
2017-11-30T11:38:23.819Z,96735.50
2017-11-30T11:40:52.101Z,96743.56
2017-11-30T11:43:20.526Z,96739.32
2017-11-30T11:45:48.933Z,96744.38
2017-11-30T11:48:17.591Z,96739.73
2017-11-30T11:50:46.035Z,96734.69
2017-11-30T11:53:14.624Z,96730.89
2017-11-30T11:55:43.401Z,96729.16
2017-11-30T11:58:14.046Z,96714.38
2017-11-30T12:00:43.437Z,96727.48
2017-11-30T12:03:12.072Z,96723.25
2017-11-30T12:05:40.388Z,96727.90
2017-11-30T12:08:08.677Z,96730.84
2017-11-30T12:10:37.760Z,96735.50
2017-11-30T12:13:06.067Z,96732.53
2017-11-30T12:15:34.539Z,96732.94
2017-11-30T12:18:03.010Z,96729.55
2017-11-30T12:20:31.613Z,96727.00
2017-11-30T12:23:01.087Z,96723.63
2017-11-30T12:25:31.393Z,96723.63
2017-11-30T12:27:59.690Z,96718.95
2017-11-30T12:30:28.738Z,96720.19
2017-11-30T12:32:57.045Z,96718.94
2017-11-30T12:35:25.345Z,96720.20
2017-11-30T12:37:53.635Z,96721.91
2017-11-30T12:40:21.913Z,96715.13
2017-11-30T12:42:50.211Z,96714.66
2017-11-30T12:45:18.502Z,96709.56
2017-11-30T12:47:46.782Z,96715.55
2017-11-30T12:50:15.065Z,96708.74
2017-11-30T12:52:43.349Z,96710.45
2017-11-30T12:55:11.629Z,96703.20
2017-11-30T12:57:39.927Z,96715.04
2017-11-30T13:00:08.988Z,96712.53
2017-11-30T13:02:37.305Z,96710.81
2017-11-30T13:05:06.361Z,96712.48
2017-11-30T13:07:34.663Z,96711.70
2017-11-30T13:10:02.948Z,96709.15
2017-11-30T13:12:31.287Z,96705.38
2017-11-30T13:14:59.564Z,96712.54
2017-11-30T13:17:27.859Z,96708.77
2017-11-30T13:19:56.153Z,96715.57
2017-11-30T13:22:24.488Z,96712.62
2017-11-30T13:24:52.785Z,96716.84
2017-11-30T13:27:21.072Z,96708.37
2017-11-30T13:29:49.364Z,96707.55
2017-11-30T13:32:17.668Z,96708.78
2017-11-30T13:34:45.948Z,96706.22
2017-11-30T13:37:14.241Z,96706.66
2017-11-30T13:39:42.524Z,96714.29
2017-11-30T13:42:10.816Z,96712.17
2017-11-30T13:44:39.144Z,96716.42
2017-11-30T13:47:07.997Z,96713.05
2017-11-30T13:49:36.315Z,96708.45
2017-11-30T13:52:04.580Z,96712.27
2017-11-30T13:54:32.862Z,96713.52
2017-11-30T13:57:01.156Z,96714.79
2017-11-30T13:59:29.453Z,96716.91
2017-11-30T14:01:57.737Z,96714.37
2017-11-30T14:04:26.053Z,96714.36
2017-11-30T14:06:54.352Z,96718.99
2017-11-30T14:09:22.653Z,96713.51
2017-11-30T14:11:50.956Z,96718.56
2017-11-30T14:14:19.270Z,96724.48
2017-11-30T14:16:47.610Z,96718.96
2017-11-30T14:19:15.852Z,96723.23
2017-11-30T14:21:44.140Z,96724.50
2017-11-30T14:24:13.222Z,96719.84
2017-11-30T14:26:41.504Z,96720.31
2017-11-30T14:29:09.788Z,96722.41
2017-11-30T14:31:38.081Z,96722.41
2017-11-30T14:34:06.377Z,96725.36
2017-11-30T14:36:35.325Z,96727.47
2017-11-30T14:39:03.609Z,96728.32
2017-11-30T14:41:31.897Z,96729.19
2017-11-30T14:44:00.205Z,96727.92
2017-11-30T14:46:29.257Z,96730.03
2017-11-30T14:48:57.540Z,96728.34
2017-11-30T14:51:25.822Z,96727.09
2017-11-30T14:53:54.141Z,96722.42
2017-11-30T14:56:22.432Z,96734.25
2017-11-30T14:58:50.725Z,96737.64
2017-11-30T15:01:19.024Z,96734.69
2017-11-30T15:03:47.317Z,96740.19
2017-11-30T15:06:15.605Z,96742.28
2017-11-30T15:08:44.669Z,96745.23
2017-11-30T15:11:13.522Z,96740.19
2017-11-30T15:13:41.870Z,96748.18
2017-11-30T15:16:10.142Z,96743.98
2017-11-30T15:18:38.468Z,96743.98
2017-11-30T15:21:06.758Z,96738.48
2017-11-30T15:23:35.049Z,96749.03
2017-11-30T15:26:04.217Z,96746.94
2017-11-30T15:28:32.534Z,96743.95
2017-11-30T15:31:00.826Z,96740.58
2017-11-30T15:33:29.115Z,96743.97
2017-11-30T15:35:57.436Z,96745.25
2017-11-30T15:38:25.757Z,96747.34
2017-11-30T15:40:54.809Z,96746.92
2017-11-30T15:43:23.101Z,96743.98
2017-11-30T15:45:51.398Z,96743.14
2017-11-30T15:48:19.680Z,96748.61
2017-11-30T15:50:48.748Z,96749.02
2017-11-30T15:53:17.047Z,96740.14
2017-11-30T15:55:45.328Z,96743.09
2017-11-30T15:58:14.389Z,96746.90
2017-11-30T16:00:42.688Z,96747.75
2017-11-30T16:03:10.970Z,96751.12
2017-11-30T16:05:40.144Z,96748.59
2017-11-30T16:08:08.709Z,96749.02
2017-11-30T16:10:36.993Z,96754.09
2017-11-30T16:13:06.069Z,96756.63
2017-11-30T16:15:34.357Z,96753.26
2017-11-30T16:18:02.666Z,96758.75
2017-11-30T16:20:30.957Z,96760.44
2017-11-30T16:23:00.021Z,96761.28
2017-11-30T16:25:28.310Z,96765.52
2017-11-30T16:27:56.623Z,96761.70
2017-11-30T16:30:24.909Z,96759.58
2017-11-30T16:32:53.231Z,96763.38
2017-11-30T16:35:21.529Z,96763.39
2017-11-30T16:37:49.812Z,96763.38
2017-11-30T16:40:18.145Z,96763.38
2017-11-30T16:42:46.428Z,96763.35
2017-11-30T16:45:14.743Z,96773.08
2017-11-30T16:47:45.032Z,96776.87
2017-11-30T16:50:13.317Z,96783.63
2017-11-30T16:52:41.597Z,96792.46
2017-11-30T16:55:09.872Z,96792.05
2017-11-30T16:57:38.149Z,96792.92
2017-11-30T17:00:06.437Z,96785.75
2017-11-30T17:02:34.724Z,96788.72
2017-11-30T17:05:03.013Z,96793.37
2017-11-30T17:07:31.356Z,96791.25
2017-11-30T17:09:59.661Z,96793.37
2017-11-30T17:12:27.949Z,96789.56
2017-11-30T17:14:56.244Z,96782.82
2017-11-30T17:17:24.525Z,96784.94
2017-11-30T17:19:52.806Z,96783.66
2017-11-30T17:22:21.116Z,96792.94
2017-11-30T17:24:49.446Z,96792.95
2017-11-30T17:27:17.736Z,96793.78
2017-11-30T17:29:46.016Z,96793.81
2017-11-30T17:32:14.732Z,96796.34
2017-11-30T17:34:43.021Z,96797.59
2017-11-30T17:37:11.312Z,96803.52
2017-11-30T17:39:40.366Z,96802.68
2017-11-30T17:42:08.671Z,96808.59
2017-11-30T17:44:36.966Z,96809.83
2017-11-30T17:47:05.358Z,96817.42
2017-11-30T17:49:33.707Z,96813.60
2017-11-30T17:52:02.477Z,96808.98
2017-11-30T17:54:30.784Z,96811.09
2017-11-30T17:56:59.185Z,96814.45
2017-11-30T17:59:27.496Z,96815.30
2017-11-30T18:01:55.780Z,96816.98
2017-11-30T18:04:24.090Z,96814.87
2017-11-30T18:06:53.197Z,96814.86
2017-11-30T18:09:21.517Z,96819.94
2017-11-30T18:11:49.949Z,96821.66
2017-11-30T18:14:18.258Z,96824.16
2017-11-30T18:16:46.561Z,96827.13
2017-11-30T18:19:14.850Z,96829.23
2017-11-30T18:21:43.196Z,96824.55
2017-11-30T18:24:11.514Z,96827.11
2017-11-30T18:26:40.897Z,96831.81
2017-11-30T18:29:10.058Z,96822.94
2017-11-30T18:31:38.823Z,96830.57
2017-11-30T18:34:08.505Z,96829.28
2017-11-30T18:36:37.979Z,96841.12
2017-11-30T18:39:07.189Z,96836.02
2017-11-30T18:41:36.741Z,96839.00
2017-11-30T18:44:05.884Z,96833.51
2017-11-30T18:46:35.720Z,96833.94
2017-11-30T18:49:05.416Z,96835.64
2017-11-30T18:51:34.916Z,96834.78
2017-11-30T18:54:04.580Z,96835.64
2017-11-30T18:56:34.993Z,96833.95
2017-11-30T18:59:04.564Z,96836.06
2017-11-30T19:01:34.769Z,96837.73
2017-11-30T19:04:04.750Z,96833.94
2017-11-30T19:06:35.243Z,96836.48
2017-11-30T19:09:05.414Z,96832.22
2017-11-30T19:11:35.233Z,96836.47
2017-11-30T19:14:05.051Z,96837.28
2017-11-30T19:16:34.899Z,96837.30
2017-11-30T19:19:04.679Z,96834.34
2017-11-30T19:21:34.733Z,96834.77
2017-11-30T19:24:04.574Z,96839.84
2017-11-30T19:26:34.563Z,96844.05
2017-11-30T19:29:04.399Z,96844.92
2017-11-30T19:31:34.246Z,96846.19
2017-11-30T19:34:04.075Z,96851.27
2017-11-30T19:36:34.003Z,96858.02
2017-11-30T19:39:04.107Z,96862.23
2017-11-30T19:41:34.103Z,96867.20
2017-11-30T19:44:03.990Z,96871.45
2017-11-30T19:46:36.403Z,96873.17
2017-11-30T19:49:06.294Z,96871.88
2017-11-30T19:51:36.150Z,96872.76
2017-11-30T19:54:06.015Z,96868.95
2017-11-30T19:56:35.832Z,96872.73
2017-11-30T19:59:05.664Z,96875.29
2017-11-30T20:01:35.551Z,96881.20
2017-11-30T20:04:06.172Z,96878.66
2017-11-30T20:06:35.994Z,96877.84
2017-11-30T20:09:06.748Z,96881.63
2017-11-30T20:11:36.622Z,96882.05
2017-11-30T20:14:07.266Z,96884.61
2017-11-30T20:16:38.920Z,96885.84
2017-11-30T20:19:08.791Z,96890.88
2017-11-30T20:21:38.536Z,96889.48
2017-11-30T20:24:08.570Z,96892.05
2017-11-30T20:26:39.240Z,96887.46
2017-11-30T20:29:09.076Z,96887.92
2017-11-30T20:31:38.831Z,96887.95
2017-11-30T20:34:09.463Z,96894.61
2017-11-30T20:36:39.956Z,96896.63
2017-11-30T20:39:09.818Z,96896.30
2017-11-30T20:41:39.696Z,96898.44
2017-11-30T20:44:10.233Z,96896.38
2017-11-30T20:46:40.760Z,96899.73
2017-11-30T20:49:11.380Z,96898.91
2017-11-30T20:51:42.224Z,96899.77
2017-11-30T20:54:12.007Z,96895.59
2017-11-30T20:56:42.626Z,96899.38
2017-11-30T20:59:13.406Z,96896.00
2017-11-30T21:01:44.140Z,96899.39
2017-11-30T21:04:14.112Z,96898.55
2017-11-30T21:06:45.021Z,96899.84
2017-11-30T21:09:14.924Z,96909.06
2017-11-30T21:11:45.904Z,96905.66
2017-11-30T21:14:15.822Z,96904.80
2017-11-30T21:16:46.181Z,96914.84
2017-11-30T21:19:16.083Z,96910.95
2017-11-30T21:21:45.801Z,96911.81
2017-11-30T21:24:16.696Z,96913.42
2017-11-30T21:26:46.540Z,96921.05
2017-11-30T21:29:16.285Z,96920.68
2017-11-30T21:31:46.044Z,96923.31
2017-11-30T21:34:16.225Z,96922.83
2017-11-30T21:36:46.436Z,96927.86
2017-11-30T21:39:16.914Z,96934.12
2017-11-30T21:41:46.738Z,96940.02
2017-11-30T21:44:16.262Z,96942.06
2017-11-30T21:46:46.323Z,96935.83
2017-11-30T21:49:15.306Z,96936.77
2017-11-30T21:51:44.203Z,96944.70
2017-11-30T21:54:12.907Z,96935.14
2017-11-30T21:56:42.827Z,96941.52
2017-11-30T21:59:11.467Z,96936.48
2017-11-30T22:01:39.847Z,96937.73
2017-11-30T22:04:08.362Z,96939.45
2017-11-30T22:06:36.674Z,96941.98
2017-11-30T22:09:04.963Z,96944.54
2017-11-30T22:11:33.260Z,96947.81
2017-11-30T22:14:02.782Z,96947.90
2017-11-30T22:16:31.089Z,96948.33
2017-11-30T22:18:59.367Z,96950.72
2017-11-30T22:21:27.668Z,96958.11
2017-11-30T22:23:59.010Z,96959.77
2017-11-30T22:26:33.504Z,96954.92
2017-11-30T22:29:01.925Z,96947.30
2017-11-30T22:31:30.581Z,96956.09
2017-11-30T22:33:58.971Z,96962.58
2017-11-30T22:36:27.405Z,96964.86
2017-11-30T22:38:55.872Z,96972.53
2017-11-30T22:41:24.501Z,96965.53
2017-11-30T22:43:53.822Z,96968.35
2017-11-30T22:46:22.597Z,96966.78
2017-11-30T22:48:50.968Z,96969.36
2017-11-30T22:51:19.349Z,96977.95
2017-11-30T22:53:47.693Z,96973.34
2017-11-30T22:56:17.142Z,96973.92
2017-11-30T22:58:45.601Z,96981.05
2017-11-30T23:01:14.281Z,96976.27
2017-11-30T23:03:42.831Z,96983.33
2017-11-30T23:06:11.158Z,96982.16
2017-11-30T23:08:40.330Z,96976.30
2017-11-30T23:11:09.541Z,96993.44
2017-11-30T23:13:39.031Z,96993.70
2017-11-30T23:16:07.722Z,96990.92
2017-11-30T23:18:37.233Z,96993.92
2017-11-30T23:21:05.801Z,96998.69
2017-11-30T23:23:34.164Z,97000.45
2017-11-30T23:26:02.601Z,97007.66
2017-11-30T23:28:32.842Z,97008.51
2017-11-30T23:31:01.193Z,97010.23
2017-11-30T23:33:29.586Z,97004.81
2017-11-30T23:35:58.650Z,97009.02
2017-11-30T23:38:26.969Z,97010.28
2017-11-30T23:40:55.261Z,97007.75
2017-11-30T23:43:23.563Z,97013.30
2017-11-30T23:45:51.854Z,97010.34
2017-11-30T23:48:20.173Z,97007.78
2017-11-30T23:50:48.494Z,97009.66
2017-11-30T23:53:16.778Z,97011.32
2017-11-30T23:55:45.114Z,97021.52
2017-11-30T23:58:13.749Z,97016.88
